| Place | Name | Time | Raw score | Score |
|---|---|---|---|---|
| 1 | Brionac | 40.99 | 1,000 | 372 |
| 2 | Siyzerix | 41.63 | 900 | 335 |
| 3 | fentanyl lover <3 | 41.71 | 859 | 319 |
| 4 | Ferreus | 41.77 | 827 | 307 |
| 5 | Kinix | 42.26 | 800 | 297 |
| 6 | Freud | 42.63 | 777 | 289 |
| 7 | -DarkLlama- | 42.94 | 756 | 281 |
| 8 | Terrapin | 43.04 | 736 | 274 |
| 9 | slug ʕ●.●ʔ | 43.36 | 718 | 267 |
| 10 | XiQu3sT | 44.56 | 700 | 260 |
| 11 | Predatory_Balloon | 45.60 | 684 | 254 |
| 12 | Zany | 45.67 | 669 | 249 |
| 12 | burger | 45.67 | 669 | 249 |
| 14 | pigpenguin | 45.81 | 640 | 238 |
| 15 | IllKIllU | 46.01 | 626 | 233 |
| 16 | [deleted] | 46.07 | 613 | 228 |
| 17 | KnightBane | 46.41 | 600 | 223 |
| 18 | mcatooch | 46.63 | 588 | 219 |
| 19 | OMANEYE | 46.81 | 576 | 214 |
| 20 | jason | 47.12 | 565 | 210 |
| 21 | i0nTempest | 47.38 | 553 | 206 |
| 22 | gingerette95 | 47.52 | 542 | 201 |
| 23 | Formidable | 47.94 | 531 | 197 |
| 24 | Homulilly (Witch) | 48.16 | 521 | 194 |
| 25 | Bridge | 48.29 | 511 | 190 |
| 26 | Void Concept | 48.55 | 500 | 186 |
| 27 | Dreigo | 48.95 | 491 | 183 |
| 28 | Goldbergenstein | 48.96 | 481 | 179 |
| 29 | khrisround2 | 49.02 | 471 | 175 |
| 30 | notguts | 49.10 | 462 | 172 |
| 31 | SlowScan | 49.46 | 453 | 168 |
| 32 | Nerf | 49.81 | 444 | 165 |
| 33 | Ohnoitsmangofett | 50.12 | 435 | 162 |
| 34 | Dimitri | 50.25 | 426 | 158 |
| 35 | menkaru | 50.79 | 417 | 155 |
| 36 | RaiderZulu | 50.92 | 409 | 152 |
| 37 | supersmily5 | 52.59 | 400 | 149 |
| 38 | Draygone | 53.72 | 392 | 146 |
| 39 | Californ1a | 53.81 | 384 | 143 |
| 40 | Sidewinder Fang | 53.83 | 376 | 140 |
| 41 | Waonder | 54.64 | 368 | 137 |
| 42 | PUTENSTREIFEN | 55.32 | 360 | 134 |
| 43 | Jay2a | 56.49 | 352 | 131 |
| 44 | Nero | 58.35 | 345 | 128 |
| 45 | concil | 58.70 | 337 | 125 |
| 46 | TheEPROM9 LaTeX | 59.08 | 330 | 123 |
| 47 | Tribow | 1:03.42 | 322 | 120 |
| 48 | cerberus❤ | 1:05.11 | 315 | 117 |
| 49 | GTNeon | 1:05.98 | 308 | 115 |
| 50 | TS_Mind_Swept | 1:07.58 | 300 | 112 |
| 51 | Backgrounds' | 1:07.74 | 293 | 109 |
| 52 | Azure Zakura | 1:08.76 | 286 | 106 |
| 53 | Inventor of sliced bread | 1:09.19 | 279 | 104 |
| 54 | DROCHEPOLK | 1:09.58 | 272 | 101 |
| 55 | Pristine | 1:10.62 | 266 | 99 |
| 56 | DefenderOfHyrule | 1:10.88 | 259 | 96 |
| 57 | Kenaz | 1:10.97 | 252 | 94 |
| 58 | [RC] | 1:11.77 | 246 | 91 |
| 59 | Deadlock | 1:11.89 | 239 | 89 |
| 60 | Hotride | 1:11.91 | 232 | 86 |
| 61 | Corecii | 1:12.62 | 226 | 84 |
| 62 | Nico | 1:12.83 | 219 | 81 |
| 63 | itsukarine | 1:12.84 | 213 | 79 |
| 64 | VI_fizz | 1:13.54 | 207 | 77 |
| 65 | 4onen | 1:13.75 | 200 | 74 |
| 66 | Woren | 1:13.97 | 194 | 72 |
| 67 | Ashton_bro | 1:15.89 | 188 | 70 |
| 68 | CodedCrow | 1:16.53 | 182 | 68 |
| 69 | Samn | 1:17.40 | 176 | 65 |
| 70 | Blahaj Blast | 1:17.65 | 170 | 63 |
| 71 | Wild_Card | 1:17.85 | 164 | 61 |
| 72 | ash | 1:20.05 | 158 | 59 |
| 73 | ツ | 1:20.66 | 152 | 57 |
| 74 | Neoblastz | 1:21.15 | 146 | 54 |
| 75 | Cyberpunk Ice Noodle | 1:21.54 | 140 | 52 |
| 76 | Raynland McNuggets | 1:21.73 | 134 | 50 |
| 77 | Ae1oURed | 1:22.02 | 129 | 48 |
| 78 | Jacsn | 1:22.36 | 123 | 46 |
| 79 | PPTREXFFT | 1:22.67 | 117 | 43 |
| 80 | Iris | 1:24.65 | 112 | 42 |
| 81 | krizithy | 1:24.91 | 106 | 39 |
| 82 | Chase | 1:25.03 | 100 | 37 |
| 83 | CipherRae | 1:25.89 | 95 | 35 |
| 84 | Animax | 1:26.94 | 89 | 33 |
| 85 | kriz_chan | 1:27.51 | 84 | 31 |
| 86 | 猫かわいい | 1:27.67 | 79 | 29 |
| 87 | NeonChaosAwoo | 1:28.25 | 73 | 27 |
| 88 | XLgeneral | 1:32.28 | 68 | 25 |
| 89 | Paparazzi | 1:32.49 | 62 | 23 |
| 90 | jvdxn | 1:32.64 | 57 | 21 |
| 91 | PinesOfChaos | 1:32.76 | 52 | 19 |
| 92 | Gyodesis | 1:32.78 | 47 | 17 |
| 93 | JohnCorby | 1:32.87 | 41 | 15 |
| 94 | Camel | 1:33.81 | 36 | 13 |
| 95 | Ebeta2 | 1:33.95 | 31 | 12 |
| 96 | JႣႽEPHI КЯAКႣWႽКI | 1:34.08 | 26 | 10 |
| 97 | FluffyTheZombii | 1:34.10 | 21 | 8 |
| 98 | [deleted] | 1:34.15 | 16 | 6 |
| 98 | DisQorded | 1:34.15 | 16 | 6 |
| 100 | G9 | 1:34.19 | 6 | 2 |
| 101 | Sayrix | 1:34.21 | 0 | 0 |
| 102 | Melty Land Nightmare | 1:34.24 | 0 | 0 |
| 102 | Wolf Black | 1:34.24 | 0 | 0 |
| 104 | Neko14789 | 1:34.29 | 0 | 0 |
| 105 | Haunted Pleb | 1:34.35 | 0 | 0 |
| 106 | Vynll | 1:34.36 | 0 | 0 |
| 107 | Uncle Sarge | 1:34.37 | 0 | 0 |
| 108 | Vulduv | 1:34.39 | 0 | 0 |
| 109 | TinFoilMkIV | 1:34.43 | 0 | 0 |
| 110 | Blexyde | 1:34.45 | 0 | 0 |
| 111 | Delta | 1:34.49 | 0 | 0 |
| 112 | DethHoun | 1:34.50 | 0 | 0 |
| 113 | Zineth101 | 1:34.56 | 0 | 0 |
| 113 | JayBoneJay | 1:34.56 | 0 | 0 |
| 115 | Quirked-up White Boy | 1:34.58 | 0 | 0 |
| 115 | T1g3r | 1:34.58 | 0 | 0 |
| 117 | SX64 | 1:34.59 | 0 | 0 |
| 118 | EdgeMiles | 1:34.67 | 0 | 0 |
| 119 | GLUBBA | 1:34.68 | 0 | 0 |
| 120 | Simon Evo | 1:34.71 | 0 | 0 |
| 120 | Ldarco1 | 1:34.71 | 0 | 0 |
| 122 | lucascool12 | 1:34.72 | 0 | 0 |
| 122 | Overlord | 1:34.72 | 0 | 0 |
| 124 | Orion | 1:34.74 | 0 | 0 |
| 124 | SirDan | 1:34.74 | 0 | 0 |
| 126 | matheus paiva | 1:34.75 | 0 | 0 |
| 126 | Zenoguard | 1:34.75 | 0 | 0 |
| 128 | Curious Fish | 1:34.76 | 0 | 0 |
| 128 | TP-N.co PC-118 B-10001110101 | 1:34.76 | 0 | 0 |
| 128 | Sky_ | 1:34.76 | 0 | 0 |
| 131 | NicholasKB19 | 1:34.77 | 0 | 0 |
| 132 | youtube vembress | 1:34.79 | 0 | 0 |
| 133 | Inzarin | 1:34.81 | 0 | 0 |
| 133 | Spaceburger | 1:34.81 | 0 | 0 |
| 135 | RetaliationGuy YT | 1:34.83 | 0 | 0 |
| 136 | Joti | 1:34.84 | 0 | 0 |
| 137 | Ramirez | 1:34.86 | 0 | 0 |
| 137 | Najred | 1:34.86 | 0 | 0 |
| 139 | The K-man | 1:34.91 | 0 | 0 |
| 140 | dinkleb3rg | 1:34.92 | 0 | 0 |
| 141 | Dislin | 1:34.93 | 0 | 0 |
| 141 | KWP | 1:34.93 | 0 | 0 |
| 143 | Shin Kamen Red | 1:34.94 | 0 | 0 |
| 144 | JDthe3rd | 1:34.95 | 0 | 0 |
| 145 | O' The Iron E | 1:34.96 | 0 | 0 |
| 145 | Spark | 1:34.96 | 0 | 0 |
| 147 | dan7999 | 1:34.97 | 0 | 0 |
| 148 | cptnbean | 1:34.98 | 0 | 0 |
| 149 | Yak-Yo! | 1:34.99 | 0 | 0 |
| 149 | codename_rb | 1:34.99 | 0 | 0 |
| 151 | Lin | 1:35.00 | 0 | 0 |
| 152 | Rusty Shackleford | 1:35.01 | 0 | 0 |
| 152 | Jarminx | 1:35.01 | 0 | 0 |
| 152 | LobaDK | 1:35.01 | 0 | 0 |
| 155 | Crimson Blood | 1:35.02 | 0 | 0 |
| 156 | danny1234331 | 1:35.03 | 0 | 0 |
| 157 | RUDrew | 1:35.04 | 0 | 0 |
| 158 | SneakySN | 1:35.05 | 0 | 0 |
| 159 | Naoroji | 1:35.06 | 0 | 0 |
| 159 | Readek | 1:35.06 | 0 | 0 |
| 159 | Kaliphear | 1:35.06 | 0 | 0 |
| 162 | EleventyB | 1:35.07 | 0 | 0 |
| 162 | BlacKat | 1:35.07 | 0 | 0 |
| 164 | Timme701 | 1:35.09 | 0 | 0 |
| 164 | Tydaxer | 1:35.09 | 0 | 0 |
| 164 | Songbird | 1:35.09 | 0 | 0 |
| 167 | ReallyDumbFox | 1:35.10 | 0 | 0 |
| 168 | ^1WᴀʀᴘWɪʀᴇ | 1:35.14 | 0 | 0 |
| 168 | e⁻ | 1:35.14 | 0 | 0 |
| 170 | Minty | 1:35.15 | 0 | 0 |
| 170 | TheEvilMidnightBomber | 1:35.15 | 0 | 0 |
| 172 | Wollkopf | 1:35.16 | 0 | 0 |
| 173 | rbrules | 1:35.17 | 0 | 0 |
| 173 | Sosolatulipe | 1:35.17 | 0 | 0 |
| 173 | Monitor3437 | 1:35.17 | 0 | 0 |
| 173 | Clovendeer | 1:35.17 | 0 | 0 |
| 173 | PineFreshGuy | 1:35.17 | 0 | 0 |
| 178 | PurpleSuede | 1:35.18 | 0 | 0 |
| 178 | Mar_Veloz | 1:35.18 | 0 | 0 |
| 180 | ShadowWolf | 1:35.19 | 0 | 0 |
| 181 | Griiig | 1:35.20 | 0 | 0 |
| 181 | CHAINSAW MONKEY! | 1:35.20 | 0 | 0 |
| 181 | GaMiiX46 | 1:35.20 | 0 | 0 |
| 184 | Zen | 1:35.24 | 0 | 0 |
| 184 | Гвоздь | 1:35.24 | 0 | 0 |
| 186 | FRX | 1:35.25 | 0 | 0 |
| 187 | VectorBot | 1:35.26 | 0 | 0 |
| 187 | Gloþ | 1:35.26 | 0 | 0 |
| 187 | rey20099 | 1:35.26 | 0 | 0 |
| 190 | bacon | 1:35.28 | 0 | 0 |
| 191 | NyctoGT | 1:35.31 | 0 | 0 |
| 192 | The Unusual Suspect | 1:35.32 | 0 | 0 |
| 193 | Embylles | 1:35.33 | 0 | 0 |
| 193 | Qioury | 1:35.33 | 0 | 0 |
| 193 | TheMelonGod | 1:35.33 | 0 | 0 |
| 196 | Thunderskull | 1:35.35 | 0 | 0 |
| 197 | Defiance_LLK | 1:35.36 | 0 | 0 |
| 197 | Ruslan145 | 1:35.36 | 0 | 0 |
| 199 | Seinah | 1:35.37 | 0 | 0 |
| 199 | DEMON | 1:35.37 | 0 | 0 |
| 199 | Sayukki | 1:35.37 | 0 | 0 |
| 202 | maddison135 | 1:35.39 | 0 | 0 |
| 203 | Therio | 1:35.40 | 0 | 0 |
| 203 | edc | 1:35.40 | 0 | 0 |
| 205 | Jostein | 1:35.41 | 0 | 0 |
| 206 | Proto | 1:35.44 | 0 | 0 |
| 207 | LachenJager | 1:35.46 | 0 | 0 |
| 208 | Moonie | 1:35.51 | 0 | 0 |
| 209 | Da Doom Man | 1:35.52 | 0 | 0 |
| 209 | Numerousluke | 1:35.52 | 0 | 0 |
| 211 | trigger_segfault | 1:35.55 | 0 | 0 |
| 212 | blur | 1:35.56 | 0 | 0 |
| 213 | Silver~ | 1:35.58 | 0 | 0 |
| 214 | itsNinety_ | 1:35.59 | 0 | 0 |
| 215 | baakstaff | 1:35.67 | 0 | 0 |
| 216 | Azem_of_Earth | 1:35.69 | 0 | 0 |
| 216 | ranger481 | 1:35.69 | 0 | 0 |
| 218 | Void | 1:35.70 | 0 | 0 |
| 218 | Sagara | 1:35.70 | 0 | 0 |
| 220 | toniqe53 | 1:35.71 | 0 | 0 |
| 221 | DarkSpiritK | 1:35.73 | 0 | 0 |
| 222 | EndlessGaming | 1:35.76 | 0 | 0 |
| 222 | 1:35.76 | 0 | 0 | |
| 224 | JacquetheRipper | 1:35.77 | 0 | 0 |
| 225 | Lazarus | 1:35.78 | 0 | 0 |
| 226 | Sammyrism | 1:35.79 | 0 | 0 |
| 227 | scorchers29 | 1:35.82 | 0 | 0 |
| 228 | Louis Thau | 1:35.86 | 0 | 0 |
| 229 | tigerchef123 | 1:35.94 | 0 | 0 |
| 230 | [BIT] Iroden | 1:35.96 | 0 | 0 |
| 231 | blue_alien_bg | 1:35.97 | 0 | 0 |
| 232 | Rustal | 1:35.98 | 0 | 0 |
| 233 | PolychromeVirus | 1:35.99 | 0 | 0 |
| 234 | CuddleStrike | 1:36.01 | 0 | 0 |
| 235 | lift your tail for me | 1:36.08 | 0 | 0 |
| 236 | Epsilon_Knight | 1:36.09 | 0 | 0 |
| 236 | imxRaven | 1:36.09 | 0 | 0 |
| 236 | Weird Pumpkin | 1:36.09 | 0 | 0 |
| 236 | Wyattwashere | 1:36.09 | 0 | 0 |
| 240 | [deleted] | 1:36.14 | 0 | 0 |
| 240 | CoJo12 | 1:36.14 | 0 | 0 |
| 242 | accident prone | 1:36.17 | 0 | 0 |
| 243 | Joan6694 | 1:36.22 | 0 | 0 |
| 244 | CampingCarl | 1:36.24 | 0 | 0 |
| 245 | Sunaryt | 1:36.28 | 0 | 0 |
| 245 | Villawitts | 1:36.28 | 0 | 0 |
| 247 | Potted Mushroom | 1:36.33 | 0 | 0 |
| 248 | ExcoRage | 1:36.36 | 0 | 0 |
| 249 | g.brincks | 1:36.39 | 0 | 0 |
| 250 | Skeleton | 1:36.45 | 0 | 0 |
| 251 | BYTC | 1:36.47 | 0 | 0 |
| 252 | Benji | 1:36.60 | 0 | 0 |
| 253 | CuteSuissyLePoneySuisse | 1:36.63 | 0 | 0 |
| 254 | Lightbird | 1:36.70 | 0 | 0 |
| 255 | NePurple | 1:36.78 | 0 | 0 |
| 256 | Bakageyama | 1:36.80 | 0 | 0 |
| 257 | Roboraser | 1:36.82 | 0 | 0 |
| 258 | CeruleanAzura | 1:36.84 | 0 | 0 |
| 259 | Spearmint | 1:36.87 | 0 | 0 |
| 260 | SkyCaptain502 | 1:36.91 | 0 | 0 |
| 261 | Domino | 1:36.97 | 0 | 0 |
| 262 | Negaprion | 1:36.99 | 0 | 0 |
| 263 | Jimmy Gibbs | 1:37.02 | 0 | 0 |
| 264 | Lywelyn | 1:37.13 | 0 | 0 |
| 265 | Luminous | 1:37.15 | 0 | 0 |
| 266 | Frozen Dino | 1:37.23 | 0 | 0 |
| 267 | Mystery Milk | 1:37.31 | 0 | 0 |
| 268 | H A L O 3 M A R I N E | 1:37.42 | 0 | 0 |
| 269 | Grimhelm Thunderblood | 1:37.46 | 0 | 0 |
| 270 | Brady | 1:37.47 | 0 | 0 |
| 271 | One Man Moon Band | 1:37.59 | 0 | 0 |
| 272 | Greeny^ | 1:37.64 | 0 | 0 |
| 273 | Sunnydan | 1:37.66 | 0 | 0 |
| 274 | [BIT]SnepSpecialist | 1:37.67 | 0 | 0 |
| 275 | PuppySky | 1:37.68 | 0 | 0 |
| 275 | The Blue Fox | 1:37.68 | 0 | 0 |
| 277 | Zetron | 1:37.69 | 0 | 0 |
| 278 | Sukairaa Kuma | 1:37.75 | 0 | 0 |
| 279 | Shroom | 1:37.84 | 0 | 0 |
| 279 | Verity | 1:37.84 | 0 | 0 |
| 281 | General Kenobi | 1:37.88 | 0 | 0 |
| 282 | phfphefph | 1:37.98 | 0 | 0 |
| 283 | ant | 1:38.04 | 0 | 0 |
| 284 | Agent Starlight | 1:38.19 | 0 | 0 |
| 285 | Mr. Bird | 1:38.21 | 0 | 0 |
| 286 | Latapi | 1:38.25 | 0 | 0 |
| 287 | Serperior497 | 1:38.34 | 0 | 0 |
| 288 | DOOM | 1:38.35 | 0 | 0 |
| 289 | Dutesao | 1:38.41 | 0 | 0 |
| 290 | [deleted] | 1:38.47 | 0 | 0 |
| 290 | TheBoredguyyy | 1:38.47 | 0 | 0 |
| 292 | Cobaltfox41 | 1:38.63 | 0 | 0 |
| 292 | levinv270 | 1:38.63 | 0 | 0 |
| 294 | Dark Star | 1:38.69 | 0 | 0 |
| 295 | Redx | 1:38.70 | 0 | 0 |
| 295 | Nickel | 1:38.70 | 0 | 0 |
| 297 | Lémohn | 1:38.72 | 0 | 0 |
| 298 | Uholyn | 1:38.78 | 0 | 0 |
| 298 | pugna's style | 1:38.78 | 0 | 0 |
| 298 | ZSlash | 1:38.78 | 0 | 0 |
| 301 | Tanzanite_NR | 1:38.81 | 0 | 0 |
| 302 | DigitalEden | 1:38.94 | 0 | 0 |
| 303 | RagingPoet | 1:38.95 | 0 | 0 |
| 304 | Derdoron | 1:38.98 | 0 | 0 |
| 305 | Minecraft-pro | 1:39.00 | 0 | 0 |
| 306 | Awesomedan | 1:39.01 | 0 | 0 |
| 307 | Sleve McDichael | 1:39.04 | 0 | 0 |
| 308 | Bile | 1:39.06 | 0 | 0 |
| 309 | Sexecutioner | 1:39.07 | 0 | 0 |
| 310 | Krull | 1:39.10 | 0 | 0 |
| 311 | Arriow | 1:39.15 | 0 | 0 |
| 312 | Kincaid | 1:39.20 | 0 | 0 |
| 312 | Dosilox | 1:39.20 | 0 | 0 |
| 314 | BluntButters | 1:39.25 | 0 | 0 |
| 314 | IanRosk | 1:39.25 | 0 | 0 |
| 316 | Duke Swampy | 1:39.26 | 0 | 0 |
| 316 | Dorphan | 1:39.26 | 0 | 0 |
| 318 | Pompous Whale | 1:39.29 | 0 | 0 |
| 319 | MP X10L | 1:39.30 | 0 | 0 |
| 319 | Locura | 1:39.30 | 0 | 0 |
| 319 | Jam0344 | 1:39.30 | 0 | 0 |
| 322 | Crysest | 1:39.31 | 0 | 0 |
| 323 | Ion | 1:39.32 | 0 | 0 |
| 324 | Blu3 | 1:39.53 | 0 | 0 |
| 325 | SimplyBenjamen | 1:39.62 | 0 | 0 |
| 326 | Raisinbran | 1:39.65 | 0 | 0 |
| 326 | Spartan117® | 1:39.65 | 0 | 0 |
| 328 | Azure | 1:39.70 | 0 | 0 |
| 329 | Me0wzipan | 1:39.73 | 0 | 0 |
| 330 | Verdor | 1:39.82 | 0 | 0 |
| 331 | Kypar | 1:39.84 | 0 | 0 |
| 332 | Super_Shadow57 | 1:39.85 | 0 | 0 |
| 333 | Onneyon | 1:39.89 | 0 | 0 |
| 334 | Sev | 1:39.98 | 0 | 0 |
| 334 | Ennui Videogame Nerd | 1:39.98 | 0 | 0 |
| 336 | mrahc | 1:39.99 | 0 | 0 |
| 337 | The Biggest [REDACTED] Ogre | 1:40.00 | 0 | 0 |
| 338 | zombieassaultman | 1:40.01 | 0 | 0 |
| 339 | Battle Banana Chris Handsom | 1:40.14 | 0 | 0 |
| 340 | Cursed Fire | 1:40.15 | 0 | 0 |
| 340 | DPftw | 1:40.15 | 0 | 0 |
| 342 | h | 1:40.18 | 0 | 0 |
| 343 | Pato | 1:40.25 | 0 | 0 |
| 344 | Crespojazzman | 1:40.30 | 0 | 0 |
| 345 | Nadius | 1:40.36 | 0 | 0 |
| 346 | Roggee | 1:40.47 | 0 | 0 |
| 347 | Hyperdron | 1:40.48 | 0 | 0 |
| 348 | bumblebee | 1:40.59 | 0 | 0 |
| 349 | GaiaGaiyus | 1:40.61 | 0 | 0 |
| 350 | -zaz23- | 1:40.62 | 0 | 0 |
| 351 | Tigger | 1:40.64 | 0 | 0 |
| 352 | Ryowulf768 | 1:40.73 | 0 | 0 |
| 353 | Huntzilla | 1:40.76 | 0 | 0 |
| 354 | Boomer McGeezer | 1:40.80 | 0 | 0 |
| 355 | Riccardoman | 1:40.81 | 0 | 0 |
| 356 | Motel_6 | 1:40.82 | 0 | 0 |
| 357 | elSamu | 1:40.93 | 0 | 0 |
| 358 | Peter Parkour | 1:40.99 | 0 | 0 |
| 358 | < blank > | 1:40.99 | 0 | 0 |
| 358 | blue | 1:40.99 | 0 | 0 |
| 361 | Unlight369 | 1:41.01 | 0 | 0 |
| 362 | Camyx | 1:41.08 | 0 | 0 |
| 363 | Hydroglisseur | 1:41.13 | 0 | 0 |
| 364 | BoneCrack | 1:41.16 | 0 | 0 |
| 365 | D# | 1:41.19 | 0 | 0 |
| 366 | Orien S. | 1:41.23 | 0 | 0 |
| 367 | DieselFace | 1:41.28 | 0 | 0 |
| 368 | Aether Whitefeather | 1:41.30 | 0 | 0 |
| 369 | MachoDip [sd] | 1:41.31 | 0 | 0 |
| 370 | pcl219 | 1:41.32 | 0 | 0 |
| 371 | Jarek718 | 1:41.34 | 0 | 0 |
| 372 | What a save! | 1:41.41 | 0 | 0 |
| 373 | Eifha | 1:41.44 | 0 | 0 |
| 374 | AmberEmpress | 1:41.45 | 0 | 0 |
| 375 | Bundao da 2B Explode de Gostoso | 1:41.46 | 0 | 0 |
| 376 | Big Bootiecoot | 1:41.50 | 0 | 0 |
| 377 | TheFluffyDragon/JBSTheGamer | 1:41.53 | 0 | 0 |
| 378 | Gurgy | 1:41.57 | 0 | 0 |
| 379 | Weskil | 1:41.61 | 0 | 0 |
| 380 | OlafOlafson | 1:41.67 | 0 | 0 |
| 381 | Lore maker | 1:41.70 | 0 | 0 |
| 382 | Meridius_IX / Lucas | 1:41.89 | 0 | 0 |
| 382 | Nico Aigle | 1:41.89 | 0 | 0 |
| 384 | Commander Crack | 1:41.90 | 0 | 0 |
| 385 | SIGSTACKFAULT | 1:41.92 | 0 | 0 |
| 385 | Rombommind | 1:41.92 | 0 | 0 |
| 387 | Jester Thomas | 1:41.97 | 0 | 0 |
| 388 | lord commander | 1:42.08 | 0 | 0 |
| 389 | Cyxxus | 1:42.10 | 0 | 0 |
| 390 | Cerberus DCXVI | 1:42.12 | 0 | 0 |
| 390 | Disconnected | 1:42.12 | 0 | 0 |
| 392 | Narco Zero | 1:42.14 | 0 | 0 |
| 393 | Rubinlord | 1:42.22 | 0 | 0 |
| 394 | DeathByDusk | 1:42.25 | 0 | 0 |
| 395 | Bistdocs | 1:42.34 | 0 | 0 |
| 396 | Satoya | 1:42.36 | 0 | 0 |
| 397 | Alopex | 1:42.44 | 0 | 0 |
| 398 | Lesae Ephu | 1:42.50 | 0 | 0 |
| 399 | Niko | 1:42.53 | 0 | 0 |
| 400 | fxskill | 1:42.69 | 0 | 0 |
| 401 | Earthnuker | 1:42.77 | 0 | 0 |
| 401 | Vegetable Broth | 1:42.77 | 0 | 0 |
| 403 | D0HERRITT | 1:42.81 | 0 | 0 |
| 404 | Gidan | 1:43.13 | 0 | 0 |
| 405 | delfiler | 1:43.21 | 0 | 0 |
| 406 | Aureliayk | 1:43.28 | 0 | 0 |
| 407 | mmph | 1:43.32 | 0 | 0 |
| 408 | The Good Gaming Dragon | 1:43.34 | 0 | 0 |
| 409 | samson13 | 1:43.36 | 0 | 0 |
| 410 | Kosvid | 1:43.37 | 0 | 0 |
| 410 | Delhjiko | 1:43.37 | 0 | 0 |
| 412 | elijah_huh | 1:43.41 | 0 | 0 |
| 413 | ADamnDerpName | 1:43.45 | 0 | 0 |
| 414 | HerrBlinkenlichten | 1:43.59 | 0 | 0 |
| 415 | TantasStarke | 1:43.65 | 0 | 0 |
| 416 | CheeseWithHoles | 1:43.66 | 0 | 0 |
| 417 | Hornsking | 1:43.69 | 0 | 0 |
| 418 | 문경왕개미 | 1:43.70 | 0 | 0 |
| 419 | Ozymandias | 1:43.72 | 0 | 0 |
| 420 | Frizzybman11 | 1:43.74 | 0 | 0 |
| 421 | Birb | 1:43.76 | 0 | 0 |
| 422 | Toby | 1:43.82 | 0 | 0 |
| 423 | Greenfire DX | 1:43.85 | 0 | 0 |
| 424 | duplexkiller | 1:44.01 | 0 | 0 |
| 425 | sendthefish | 1:44.02 | 0 | 0 |
| 426 | Caboodles | 1:44.03 | 0 | 0 |
| 427 | Ktee | 1:44.05 | 0 | 0 |
| 428 | Slenderem | 1:44.16 | 0 | 0 |
| 429 | Neon Flash | 1:44.18 | 0 | 0 |
| 430 | Interpunct | 1:44.19 | 0 | 0 |
| 431 | pie | 1:44.22 | 0 | 0 |
| 432 | Warriot | 1:44.25 | 0 | 0 |
| 433 | Schneidog | 1:44.30 | 0 | 0 |
| 434 | Buck | 1:44.44 | 0 | 0 |
| 434 | Other XIX | 1:44.44 | 0 | 0 |
| 436 | Seal_Otter | 1:44.49 | 0 | 0 |
| 437 | Ghetto Cornflakes | 1:44.59 | 0 | 0 |
| 438 | Squeeeeeeeeps | 1:44.60 | 0 | 0 |
| 438 | Yeetus Deletus | 1:44.60 | 0 | 0 |
| 440 | Wildclaw | 1:44.67 | 0 | 0 |
| 441 | Vivid Empress | 1:44.68 | 0 | 0 |
| 442 | Seschbee | 1:44.87 | 0 | 0 |
| 443 | Jorban | 1:44.90 | 0 | 0 |
| 443 | D2C | Chrisc02 | 1:44.90 | 0 | 0 |
| 445 | loopysausage | 1:45.02 | 0 | 0 |
| 446 | Jezo | 1:45.04 | 0 | 0 |
| 447 | Rhetorical Question | 1:45.07 | 0 | 0 |
| 448 | Sperzieb00n | 1:45.15 | 0 | 0 |
| 449 | Zyon | 1:45.24 | 0 | 0 |
| 450 | Koros Antavo | 1:45.32 | 0 | 0 |
| 451 | a&b | 1:45.42 | 0 | 0 |
| 452 | Keflon | 1:45.52 | 0 | 0 |
| 453 | BlazeHedgehog | 1:45.53 | 0 | 0 |
| 453 | Kaamalauppias | 1:45.53 | 0 | 0 |
| 455 | NoBody | 1:45.61 | 0 | 0 |
| 456 | PalmTopDuck | 1:45.69 | 0 | 0 |
| 457 | Dragonsbane1270 | 1:45.70 | 0 | 0 |
| 458 | Its_Just_Dave | 1:45.76 | 0 | 0 |
| 458 | gusforester | 1:45.76 | 0 | 0 |
| 460 | s00 | 1:45.77 | 0 | 0 |
| 461 | skuzzzy | 1:45.78 | 0 | 0 |
| 462 | Spoilt | 1:45.79 | 0 | 0 |
| 462 | DamnedDeyvid | 1:45.79 | 0 | 0 |
| 464 | [iNk] Primus | 1:45.89 | 0 | 0 |
| 465 | Zyphin | 1:45.91 | 0 | 0 |
| 466 | oshunter124 | 1:45.93 | 0 | 0 |
| 467 | NK - Néko | 1:45.96 | 0 | 0 |
| 467 | TheGreenMarioBrother | 1:45.96 | 0 | 0 |
| 469 | Waymint | 1:45.98 | 0 | 0 |
| 470 | Buff Nuts | 1:46.08 | 0 | 0 |
| 471 | Cheapo | 1:46.14 | 0 | 0 |
| 471 | Disatroja | 1:46.14 | 0 | 0 |
| 471 | Gunz | 1:46.14 | 0 | 0 |
| 474 | Echor | 1:46.22 | 0 | 0 |
| 475 | Ahhrealpeople | 1:46.27 | 0 | 0 |
| 476 | [Lard] Kriltch | 1:46.32 | 0 | 0 |
| 477 | Video James | 1:46.35 | 0 | 0 |
| 478 | [NBD] PizzaHutDoxen | 1:46.45 | 0 | 0 |
| 479 | BulletRain23 | 1:46.51 | 0 | 0 |
| 480 | AI-COM//SVRN | 1:46.55 | 0 | 0 |
| 481 | Lud | Forest | 1:46.56 | 0 | 0 |
| 482 | Silver | 1:46.58 | 0 | 0 |
| 483 | Scanpie Nightmoon | 1:46.78 | 0 | 0 |
| 484 | Ultor | 1:46.93 | 0 | 0 |
| 485 | Slacks | 1:47.03 | 0 | 0 |
| 486 | Iron_Angmar | 1:47.04 | 0 | 0 |
| 487 | sWilder9 | 1:47.05 | 0 | 0 |
| 488 | Zodiac | 1:47.06 | 0 | 0 |
| 489 | Lena The Snom Mom | 1:47.09 | 0 | 0 |
| 490 | North | 1:47.15 | 0 | 0 |
| 491 | Cpt Sauce Bucket | 1:47.17 | 0 | 0 |
| 492 | Darth Sand | 1:47.18 | 0 | 0 |
| 493 | Raxus | 1:47.30 | 0 | 0 |
| 494 | Злой Noob | 1:47.43 | 0 | 0 |
| 495 | Fishtales | 1:47.47 | 0 | 0 |
| 496 | Shuya | 1:47.53 | 0 | 0 |
| 497 | Detective Man | 1:47.55 | 0 | 0 |
| 497 | Winter's Crescendo | 1:47.55 | 0 | 0 |
| 499 | Aastran | 1:47.62 | 0 | 0 |
| 500 | The Fonz | 1:47.63 | 0 | 0 |
| 501 | mathewthekid | 1:47.64 | 0 | 0 |
| 502 | xanthousphoenix | 1:47.66 | 0 | 0 |
| 503 | Jercasem | 1:47.72 | 0 | 0 |
| 504 | Enigmatic Flood | 1:47.84 | 0 | 0 |
| 505 | WiteNite | 1:47.91 | 0 | 0 |
| 506 | MrHolmes | 1:47.94 | 0 | 0 |
| 507 | DrPiggler | 1:47.97 | 0 | 0 |
| 508 | Synchronize | 1:47.99 | 0 | 0 |
| 509 | A.K.S. | 1:48.06 | 0 | 0 |
| 510 | tortulaluna | 1:48.10 | 0 | 0 |
| 511 | Mathijs | 1:48.11 | 0 | 0 |
| 512 | sizifov | 1:48.14 | 0 | 0 |
| 513 | Zoey Blackwood | 1:48.20 | 0 | 0 |
| 514 | Autonomus | 1:48.21 | 0 | 0 |
| 515 | Sugoi-desu (⊙‿⊙✿) | 1:48.25 | 0 | 0 |
| 516 | Shinchi | 1:48.28 | 0 | 0 |
| 517 | Silver Lloyd | 1:48.35 | 0 | 0 |
| 518 | Kashuzu | 1:48.38 | 0 | 0 |
| 519 | Prof. Pinwheel | 1:48.45 | 0 | 0 |
| 520 | Amored Dragon | 1:48.49 | 0 | 0 |
| 521 | Cisco 2900 Series ISR | 1:48.53 | 0 | 0 |
| 522 | fooffie | 1:48.61 | 0 | 0 |
| 523 | Fleabag | 1:48.63 | 0 | 0 |
| 524 | Abnormal Cybran | 1:48.66 | 0 | 0 |
| 525 | PatTheHyruler | 1:48.70 | 0 | 0 |
| 526 | FenchellForelle | 1:48.74 | 0 | 0 |
| 527 | King | 1:48.78 | 0 | 0 |
| 528 | Mr. Beefy | 1:48.79 | 0 | 0 |
| 528 | Natr | 1:48.79 | 0 | 0 |
| 530 | Triumphant Trump (Noties Muted) | 1:48.82 | 0 | 0 |
| 531 | Trigger | 1:48.92 | 0 | 0 |
| 532 | markschuurman1990 | 1:48.99 | 0 | 0 |
| 533 | Spiffy | 1:49.04 | 0 | 0 |
| 533 | Quantum Glitch | 1:49.04 | 0 | 0 |
| 535 | Raiden925 | 1:49.08 | 0 | 0 |
| 535 | But we're both girls! | 1:49.08 | 0 | 0 |
| 537 | Crubo | 1:49.09 | 0 | 0 |
| 538 | Toastmaster | 1:49.13 | 0 | 0 |
| 538 | NuggetTheBigBoi | 1:49.13 | 0 | 0 |
| 540 | Toxicologixal | 1:49.14 | 0 | 0 |
| 541 | Magnowser | 1:49.23 | 0 | 0 |
| 541 | Pipsibean | 1:49.23 | 0 | 0 |
| 543 | gmatsam32 | 1:49.25 | 0 | 0 |
| 544 | DvN | 1:49.28 | 0 | 0 |
| 545 | Dante | 1:49.30 | 0 | 0 |
| 546 | Giant From The East | 1:49.34 | 0 | 0 |
| 547 | Mr. Grizz | 1:49.39 | 0 | 0 |
| 548 | Hirochi | 1:49.48 | 0 | 0 |
| 549 | Agroman12 | 1:49.53 | 0 | 0 |
| 550 | MyurrDurr | 1:49.55 | 0 | 0 |
| 551 | MERC | 1:49.61 | 0 | 0 |
| 552 | Treffnix 3000 | 1:49.63 | 0 | 0 |
| 553 | Gokupotamus | 1:49.68 | 0 | 0 |
| 554 | Loopsty | 1:49.69 | 0 | 0 |
| 555 | Bullet074 | 1:49.73 | 0 | 0 |
| 556 | Twinbee | 1:49.74 | 0 | 0 |
| 557 | [Wutangle] Taddy | 1:49.76 | 0 | 0 |
| 558 | Ekzarcun | 1:49.80 | 0 | 0 |
| 559 | Nick | 1:49.82 | 0 | 0 |
| 560 | Naikel [FR] | 1:49.83 | 0 | 0 |
| 561 | Pointed Mammal29 | 1:49.90 | 0 | 0 |
| 562 | Akers | 1:49.91 | 0 | 0 |
| 563 | Valankor | 1:50.07 | 0 | 0 |
| 563 | maess2ro | 1:50.07 | 0 | 0 |
| 565 | L4ks | 1:50.14 | 0 | 0 |
| 566 | MxJunebug | 1:50.17 | 0 | 0 |
| 567 | pox | 1:50.20 | 0 | 0 |
| 568 | Viridus | 1:50.23 | 0 | 0 |
| 569 | Norz-Öril'Kern | 1:50.28 | 0 | 0 |
| 570 | LordPotato.json | 1:50.38 | 0 | 0 |
| 571 | Ròókie Red | 1:50.65 | 0 | 0 |
| 572 | 🌪Dashie010203🌪 | 1:50.69 | 0 | 0 |
| 572 | ErzoopaRTR | 1:50.69 | 0 | 0 |
| 574 | TastyBatSoup | 1:50.74 | 0 | 0 |
| 575 | Herkamer | 1:50.75 | 0 | 0 |
| 576 | mag | 1:50.78 | 0 | 0 |
| 577 | TheH | 1:50.83 | 0 | 0 |
| 578 | JuneBei | 1:50.87 | 0 | 0 |
| 579 | Xyvine | 1:50.90 | 0 | 0 |
| 580 | LiFRiz | 1:50.92 | 0 | 0 |
| 581 | Br0TherOfW@r [ PT ] | 1:50.95 | 0 | 0 |
| 582 | RobloxUwU | 1:51.13 | 0 | 0 |
| 583 | Putkins | 1:51.28 | 0 | 0 |
| 584 | DecentM | 1:51.33 | 0 | 0 |
| 585 | FrostByte | 1:51.45 | 0 | 0 |
| 586 | Andy95 | 1:51.46 | 0 | 0 |
| 587 | KramerPacer83 | 1:51.52 | 0 | 0 |
| 588 | replikaeyes | 1:51.54 | 0 | 0 |
| 589 | Quinn | 1:51.70 | 0 | 0 |
| 590 | Br'er Lappin | 1:51.76 | 0 | 0 |
| 591 | Raxmus | 1:51.78 | 0 | 0 |
| 592 | Alikey | 1:51.83 | 0 | 0 |
| 593 | Ame | 1:51.89 | 0 | 0 |
| 594 | CableBox64 | 1:51.90 | 0 | 0 |
| 595 | Alrunes | 1:51.93 | 0 | 0 |
| 596 | Tex | 1:52.15 | 0 | 0 |
| 596 | Spacefarer | 1:52.15 | 0 | 0 |
| 598 | Fushiggy | 1:52.19 | 0 | 0 |
| 599 | Michael_MaxPower | 1:52.24 | 0 | 0 |
| 600 | 25 минут кайфа | 1:52.25 | 0 | 0 |
| 601 | BrandonK-TN | 1:52.26 | 0 | 0 |
| 602 | T | 1:52.28 | 0 | 0 |
| 603 | Tem | 1:52.29 | 0 | 0 |
| 604 | Pkaradactyl | 1:52.33 | 0 | 0 |
| 605 | A Moldy Orange | 1:52.43 | 0 | 0 |
| 606 | Jappen | 1:52.56 | 0 | 0 |
| 607 | Shyylock | 1:52.64 | 0 | 0 |
| 608 | Umbrasbane | 1:52.67 | 0 | 0 |
| 608 | Nordman | 1:52.67 | 0 | 0 |
| 610 | olivqe | 1:52.74 | 0 | 0 |
| 611 | Viridian | 1:52.76 | 0 | 0 |
| 611 | GoldenDragon314 | 1:52.76 | 0 | 0 |
| 613 | Voxr | 1:52.83 | 0 | 0 |
| 614 | Defect | 1:52.90 | 0 | 0 |
| 615 | ℕukaℂolaV2 | 1:52.92 | 0 | 0 |
| 616 | Eddie980® | 1:52.98 | 0 | 0 |
| 617 | Anerix (Paradox) Cormin Quanadol | 1:52.99 | 0 | 0 |
| 618 | black eye | 1:53.01 | 0 | 0 |
| 619 | Plasmawario | 1:53.20 | 0 | 0 |
| 620 | [deleted] | 1:53.21 | 0 | 0 |
| 621 | Florm | 1:53.26 | 0 | 0 |
| 622 | ]Xenon[Shadow] | 1:53.27 | 0 | 0 |
| 623 | Carrott | 1:53.30 | 0 | 0 |
| 624 | kasoban | 1:53.31 | 0 | 0 |
| 625 | E0N | 1:53.51 | 0 | 0 |
| 625 | russ117 | 1:53.51 | 0 | 0 |
| 627 | Aespher | 1:53.53 | 0 | 0 |
| 628 | StephanoLight | 1:53.59 | 0 | 0 |
| 629 | HJQLF | 1:53.61 | 0 | 0 |
| 630 | Lokamatoka | 1:53.77 | 0 | 0 |
| 630 | Vyneci | 1:53.77 | 0 | 0 |
| 632 | Eleven27 | 1:53.78 | 0 | 0 |
| 632 | LissomChunk | 1:53.78 | 0 | 0 |
| 634 | toufsky29 | 1:53.79 | 0 | 0 |
| 635 | generally incompetent | 1:53.80 | 0 | 0 |
| 636 | Winters | 1:53.84 | 0 | 0 |
| 637 | Amuzet | 1:53.86 | 0 | 0 |
| 638 | I Sleep In Polos | 1:53.93 | 0 | 0 |
| 639 | ㄒㄖ卂丂ㄒ丨乙Ҝㄖㄖㄥ | 1:54.01 | 0 | 0 |
| 640 | Luxora | 1:54.02 | 0 | 0 |
| 641 | Mr. Doggy | 1:54.12 | 0 | 0 |
| 642 | frogman51 | 1:54.28 | 0 | 0 |
| 643 | Scarlet | 1:54.29 | 0 | 0 |
| 644 | Liningcorn9 | 1:54.32 | 0 | 0 |
| 644 | Pryn | 1:54.32 | 0 | 0 |
| 646 | minionmom82 | 1:54.39 | 0 | 0 |
| 647 | Impatotec | 1:54.46 | 0 | 0 |
| 648 | Muusdude | 1:54.48 | 0 | 0 |
| 649 | MatscheMunkey | 1:54.67 | 0 | 0 |
| 650 | Zegorrie | 1:54.70 | 0 | 0 |
| 651 | Grabuge | 1:54.71 | 0 | 0 |
| 652 | jetknife | 1:54.72 | 0 | 0 |
| 653 | Yes, I *do main this character | 1:54.77 | 0 | 0 |
| 654 | Demurd | 1:54.95 | 0 | 0 |
| 655 | A Very Angy Opossum | 1:55.00 | 0 | 0 |
| 656 | Bubba | 1:55.09 | 0 | 0 |
| 657 | Gemis037 | 1:55.13 | 0 | 0 |
| 658 | BombLance | 1:55.18 | 0 | 0 |
| 659 | Rensis Coren | 1:55.22 | 0 | 0 |
| 660 | LOLO FAK | 1:55.26 | 0 | 0 |
| 661 | Stracker | 1:55.28 | 0 | 0 |
| 662 | Loreckine | 1:55.34 | 0 | 0 |
| 663 | ExiledGen | 1:55.51 | 0 | 0 |
| 664 | The Blue Milk Group | 1:55.54 | 0 | 0 |
| 665 | Todd Bonzalez | 1:55.63 | 0 | 0 |
| 666 | A̶͓̓z̷͓̍ũ̴̩r̷͔͐e̴ | 1:55.68 | 0 | 0 |
| 667 | RL | 1:55.70 | 0 | 0 |
| 668 | Azzy | 1:55.74 | 0 | 0 |
| 669 | Zenixic | 1:55.79 | 0 | 0 |
| 670 | StrikeS1S. | 1:55.80 | 0 | 0 |
| 671 | Player145 | 1:55.81 | 0 | 0 |
| 672 | scorpius | 1:55.83 | 0 | 0 |
| 673 | Hiintz | 1:55.87 | 0 | 0 |
| 674 | tipek360 | 1:55.91 | 0 | 0 |
| 674 | jonesysound | 1:55.91 | 0 | 0 |
| 676 | AVeryTastyCactus | 1:55.93 | 0 | 0 |
| 677 | Savage Tuna | 1:55.95 | 0 | 0 |
| 678 | Doon | 1:55.96 | 0 | 0 |
| 678 | Edragon13 | 1:55.96 | 0 | 0 |
| 680 | LiquidShark | 1:56.06 | 0 | 0 |
| 681 | Azhidaahaka | 1:56.07 | 0 | 0 |
| 681 | a beaver | 1:56.07 | 0 | 0 |
| 683 | Funny Leg Jiggle | 1:56.14 | 0 | 0 |
| 684 | MaruPig | 1:56.33 | 0 | 0 |
| 685 | SirWanksalot | 1:56.40 | 0 | 0 |
| 686 | BuzZoiD | 1:56.41 | 0 | 0 |
| 687 | Marcosch | 1:56.42 | 0 | 0 |
| 688 | martino4045 | 1:56.50 | 0 | 0 |
| 689 | CygnusAutomata | 1:56.51 | 0 | 0 |
| 690 | Sxolian | 1:56.53 | 0 | 0 |
| 691 | Jos | 1:56.58 | 0 | 0 |
| 691 | Ackman♥です | 1:56.58 | 0 | 0 |
| 693 | Kine | 1:56.63 | 0 | 0 |
| 694 | SP** | 1:56.64 | 0 | 0 |
| 695 | Shifted | 1:56.70 | 0 | 0 |
| 696 | ano_eto | 1:56.82 | 0 | 0 |
| 697 | Doomstree | 1:56.91 | 0 | 0 |
| 698 | S.Kappelmann | 1:56.96 | 0 | 0 |
| 699 | Carson Taste | 1:56.99 | 0 | 0 |
| 700 | Lliane | 1:57.02 | 0 | 0 |
| 701 | Swizy | 1:57.06 | 0 | 0 |
| 702 | Pedro | 1:57.08 | 0 | 0 |
| 703 | canman | 1:57.09 | 0 | 0 |
| 704 | JeffTheBruh | 1:57.17 | 0 | 0 |
| 705 | Uppity Gryphon | 1:57.28 | 0 | 0 |
| 706 | Archi | 1:57.31 | 0 | 0 |
| 707 | EC0re | 1:57.44 | 0 | 0 |
| 708 | IIRMPII | 1:57.51 | 0 | 0 |
| 709 | Mister JT | 1:57.62 | 0 | 0 |
| 710 | Echo | 1:57.63 | 0 | 0 |
| 710 | ViryGo19 | 1:57.63 | 0 | 0 |
| 712 | --TuttiFrutti-- | 1:57.68 | 0 | 0 |
| 713 | Sawft | 1:57.70 | 0 | 0 |
| 714 | Zeo | 1:57.76 | 0 | 0 |
| 715 | Adrimg_rider | 1:57.78 | 0 | 0 |
| 716 | Hijacker02 | 1:57.80 | 0 | 0 |
| 717 | Chrisjoker12 | 1:57.95 | 0 | 0 |
| 718 | WYR3 | 1:58.04 | 0 | 0 |
| 719 | A Live Studio Audience | 1:58.05 | 0 | 0 |
| 720 | Booler | 1:58.10 | 0 | 0 |
| 720 | ZenBearDigital | 1:58.10 | 0 | 0 |
| 722 | Shyverin | 1:58.27 | 0 | 0 |
| 723 | Hinglewingle Throatjuggler | 1:58.32 | 0 | 0 |
| 724 | Duke Jukem | 1:58.39 | 0 | 0 |
| 725 | Portal Blinx | 1:58.51 | 0 | 0 |
| 726 | Edzard | 1:58.56 | 0 | 0 |
| 727 | Breaker | 1:58.63 | 0 | 0 |
| 728 | Saverin | 1:58.66 | 0 | 0 |
| 729 | Meda | 1:58.67 | 0 | 0 |
| 730 | Oblivious | 1:58.82 | 0 | 0 |
| 731 | DJairmaster | 1:58.89 | 0 | 0 |
| 732 | Navillus64 | 1:59.03 | 0 | 0 |
| 733 | Ryukiza | 1:59.04 | 0 | 0 |
| 734 | Quake Matt | 1:59.06 | 0 | 0 |
| 734 | R0gu3Sentin3l | 1:59.06 | 0 | 0 |
| 736 | Tenth | 1:59.09 | 0 | 0 |
| 737 | fischpferd | 1:59.21 | 0 | 0 |
| 738 | aoe_emp | 1:59.28 | 0 | 0 |
| 739 | Zoig | 1:59.36 | 0 | 0 |
| 740 | Gammeta | 1:59.37 | 0 | 0 |
| 741 | Pasimero | 1:59.43 | 0 | 0 |
| 741 | ´H U E V O S' | 1:59.43 | 0 | 0 |
| 743 | DriveOffTheCliff | 1:59.51 | 0 | 0 |
| 744 | Caradog | 1:59.64 | 0 | 0 |
| 745 | Marshall | 1:59.67 | 0 | 0 |
| 746 | Grat | 1:59.68 | 0 | 0 |
| 747 | Pairoba | 1:59.73 | 0 | 0 |
| 748 | Bohemius | 1:59.74 | 0 | 0 |
| 749 | Hanimani2 | 1:59.85 | 0 | 0 |
| 750 | Grimmy | 1:59.88 | 0 | 0 |
| 751 | Seastone | 1:59.93 | 0 | 0 |
| 751 | That One Panda | 1:59.93 | 0 | 0 |
| 753 | Magister Ludi | 1:59.95 | 0 | 0 |
| 754 | SunlessSoph | 1:59.98 | 0 | 0 |
| 755 | C4tch | 2:00.00 | 0 | 0 |
| 756 | ♿ | 2:00.04 | 0 | 0 |
| 757 | Hungolomghononoloughongous | 2:00.12 | 0 | 0 |
| 758 | Joyce | 2:00.22 | 0 | 0 |
| 759 | XxSupremeCountoFedoraTipper420xX | 2:00.36 | 0 | 0 |
| 760 | PIRATE | 2:00.37 | 0 | 0 |
| 761 | Tech0verlord | 2:00.43 | 0 | 0 |
| 762 | Razor_ZXM | 2:00.46 | 0 | 0 |
| 763 | Galaxic | 2:00.49 | 0 | 0 |
| 764 | timanza | 2:00.50 | 0 | 0 |
| 765 | GiraffeCubed | 2:00.57 | 0 | 0 |
| 766 | Sunkaaaaaaaaan | 2:00.58 | 0 | 0 |
| 767 | Not Steve | 2:00.63 | 0 | 0 |
| 768 | 01011011010 | 2:00.80 | 0 | 0 |
| 769 | Bara_Coded[FR] | 2:00.84 | 0 | 0 |
| 770 | Rocket Lad | 2:00.91 | 0 | 0 |
| 771 | Onyon | 2:00.95 | 0 | 0 |
| 772 | Slothborn | 2:00.98 | 0 | 0 |
| 773 | Протез человека | 2:01.06 | 0 | 0 |
| 774 | キング Raff 様 | 2:01.11 | 0 | 0 |
| 775 | Meisolus | 2:01.21 | 0 | 0 |
| 776 | Apelesin | 2:01.23 | 0 | 0 |
| 777 | Angstrom Hughes | 2:01.28 | 0 | 0 |
| 778 | Clairity | 2:01.39 | 0 | 0 |
| 779 | Aertex | 2:01.41 | 0 | 0 |
| 780 | johnchen40904 | 2:01.47 | 0 | 0 |
| 781 | GetEmOtterHere | 2:01.50 | 0 | 0 |
| 782 | Reaster | 2:01.57 | 0 | 0 |
| 783 | Zorga | 2:01.66 | 0 | 0 |
| 784 | Albertmus | 2:01.78 | 0 | 0 |
| 785 | HISKI LP | 2:01.85 | 0 | 0 |
| 786 | hAwG | 2:01.99 | 0 | 0 |
| 787 | inderinfi | 2:02.05 | 0 | 0 |
| 788 | SW18 | 2:02.07 | 0 | 0 |
| 789 | passe_riviere | 2:02.13 | 0 | 0 |
| 790 | Y2kcady | 2:02.22 | 0 | 0 |
| 791 | MercCross | 2:02.25 | 0 | 0 |
| 792 | CleverlyStoopid | 2:02.26 | 0 | 0 |
| 793 | 2Infinity&Evil | 2:02.31 | 0 | 0 |
| 794 | tawnted | 2:02.45 | 0 | 0 |
| 795 | Dyltra | 2:02.53 | 0 | 0 |
| 796 | Verendus | 2:02.68 | 0 | 0 |
| 797 | Screws | 2:02.78 | 0 | 0 |
| 798 | Solar Field | 2:02.87 | 0 | 0 |
| 799 | Bear | 2:02.98 | 0 | 0 |
| 799 | Novixion | 2:02.98 | 0 | 0 |
| 801 | NULL; | 2:02.99 | 0 | 0 |
| 802 | Dr Axton | 2:03.01 | 0 | 0 |
| 803 | Apple | 2:03.16 | 0 | 0 |
| 804 | Thumbs | 2:03.17 | 0 | 0 |
| 805 | Kenjamin | 2:03.24 | 0 | 0 |
| 806 | Constapatience | 2:03.31 | 0 | 0 |
| 807 | Racheecha | 2:03.33 | 0 | 0 |
| 808 | Tuli | 2:03.42 | 0 | 0 |
| 809 | YoloMoth | 2:03.44 | 0 | 0 |
| 810 | OmNomPacman | 2:03.54 | 0 | 0 |
| 811 | Huntor | 2:03.64 | 0 | 0 |
| 812 | Hars | 2:03.66 | 0 | 0 |
| 813 | KaBeu | 2:03.67 | 0 | 0 |
| 814 | Pteroborne | 2:03.69 | 0 | 0 |
| 815 | Sunzara | 2:03.93 | 0 | 0 |
| 816 | Vehin | 2:03.94 | 0 | 0 |
| 816 | Sartha | 2:03.94 | 0 | 0 |
| 818 | Nadoc | 2:03.97 | 0 | 0 |
| 819 | Traetors | 2:04.04 | 0 | 0 |
| 820 | Ices Blaze | 2:04.05 | 0 | 0 |
| 821 | Goosechaser | 2:04.11 | 0 | 0 |
| 822 | onixboi | 2:04.17 | 0 | 0 |
| 823 | AshenSingularity | 2:04.21 | 0 | 0 |
| 824 | Circuit_Breaker | 2:04.23 | 0 | 0 |
| 825 | Violeris | 2:04.33 | 0 | 0 |
| 826 | Juantxo Talarga | 2:04.35 | 0 | 0 |
| 827 | Recapes | 2:04.37 | 0 | 0 |
| 827 | Eternal_Dreamer_23 | 2:04.37 | 0 | 0 |
| 829 | Xeno146 | 2:04.41 | 0 | 0 |
| 830 | Big Milk | 2:04.43 | 0 | 0 |
| 831 | technobaboo | 2:04.48 | 0 | 0 |
| 832 | Woodsy | 2:04.69 | 0 | 0 |
| 833 | Emerald_Pick | 2:04.80 | 0 | 0 |
| 834 | flaniert gerne | 2:04.81 | 0 | 0 |
| 835 | Flaccid Assassin | 2:04.90 | 0 | 0 |
| 836 | Bdine | 2:04.92 | 0 | 0 |
| 837 | . | 2:05.06 | 0 | 0 |
| 838 | Pipe | 2:05.12 | 0 | 0 |
| 839 | Razgriez | 2:05.23 | 0 | 0 |
| 839 | James "Papa Het" Hetfield | 2:05.23 | 0 | 0 |
| 841 | Vorpal Soul | 2:05.36 | 0 | 0 |
| 842 | TekuGen | 2:05.44 | 0 | 0 |
| 843 | Art Vandelay | 2:05.58 | 0 | 0 |
| 844 | [deleted] | 2:05.70 | 0 | 0 |
| 845 | thom6777 | 2:05.76 | 0 | 0 |
| 846 | A | 2:05.82 | 0 | 0 |
| 847 | Шоколадка:) | 2:05.90 | 0 | 0 |
| 848 | Mike | 2:05.97 | 0 | 0 |
| 849 | Enzyme Machine | 2:06.00 | 0 | 0 |
| 850 | Дверьё | 2:06.03 | 0 | 0 |
| 851 | Kalimbato | 2:06.24 | 0 | 0 |
| 852 | Yessica_ | 2:06.25 | 0 | 0 |
| 853 | FifteenBread | 2:06.28 | 0 | 0 |
| 854 | Big Chungus2010 | 2:06.61 | 0 | 0 |
| 855 | Snerlop | 2:06.74 | 0 | 0 |
| 856 | Sora | 2:06.82 | 0 | 0 |
| 857 | Koffiekopje | 2:06.90 | 0 | 0 |
| 858 | AndonisLP | 2:07.08 | 0 | 0 |
| 859 | dryco | 2:07.10 | 0 | 0 |
| 860 | 16BitBow | 2:07.14 | 0 | 0 |
| 861 | Who | 2:07.15 | 0 | 0 |
| 862 | Keiyo | 2:07.37 | 0 | 0 |
| 863 | BlackOnyx | 2:07.47 | 0 | 0 |
| 864 | ShadeSlayer24 | 2:07.50 | 0 | 0 |
| 865 | Zacman | 2:07.53 | 0 | 0 |
| 865 | hip crusher | 2:07.53 | 0 | 0 |
| 867 | OneCent_HD | 2:07.64 | 0 | 0 |
| 868 | 321longshot | 2:07.71 | 0 | 0 |
| 869 | TheZelen | 2:07.74 | 0 | 0 |
| 870 | Jules | 2:07.75 | 0 | 0 |
| 871 | Sbev | 2:08.04 | 0 | 0 |
| 872 | fffern | 2:08.05 | 0 | 0 |
| 873 | ElHombre86 | 2:08.07 | 0 | 0 |
| 874 | Skrigar | 2:08.25 | 0 | 0 |
| 875 | SharoffKot | 2:08.29 | 0 | 0 |
| 876 | dragnor | 2:08.47 | 0 | 0 |
| 877 | KLABOEM | 2:08.64 | 0 | 0 |
| 878 | Röschti | 2:08.65 | 0 | 0 |
| 879 | Snow way it's AJD2k | 2:08.66 | 0 | 0 |
| 880 | Sibsen | 2:08.76 | 0 | 0 |
| 881 | Seshiruseth | 2:08.77 | 0 | 0 |
| 882 | Gun Gote | 2:08.82 | 0 | 0 |
| 883 | djjd01 | 2:08.88 | 0 | 0 |
| 883 | Mentecapto- | 2:08.88 | 0 | 0 |
| 885 | Saint Pierre | 2:08.92 | 0 | 0 |
| 885 | MJ12 | 2:08.92 | 0 | 0 |
| 887 | SwiFT aggro | 2:08.97 | 0 | 0 |
| 887 | BlueTorch | 2:08.97 | 0 | 0 |
| 889 | erlo68 | 2:09.00 | 0 | 0 |
| 890 | Ayre | 2:09.01 | 0 | 0 |
| 891 | Shadow34 | 2:09.03 | 0 | 0 |
| 892 | rz zombie | 2:09.14 | 0 | 0 |
| 893 | Bad at lief | 2:09.16 | 0 | 0 |
| 894 | rizyul | 2:09.23 | 0 | 0 |
| 895 | Xiotis | 2:09.35 | 0 | 0 |
| 896 | Sniggles | 2:09.46 | 0 | 0 |
| 897 | MystykZ | 2:09.59 | 0 | 0 |
| 898 | iamzim | 2:09.62 | 0 | 0 |
| 899 | ThatOneFastGuy | 2:09.70 | 0 | 0 |
| 900 | rob | 2:09.95 | 0 | 0 |
| 901 | poopadoopaloopa | 2:10.09 | 0 | 0 |
| 902 | hackerkok | 2:10.14 | 0 | 0 |
| 903 | sonic45321 | 2:10.23 | 0 | 0 |
| 904 | Noah | 2:10.27 | 0 | 0 |
| 905 | Poenger | 2:10.36 | 0 | 0 |
| 906 | Gemini | 2:10.43 | 0 | 0 |
| 907 | Lost_Incentive | 2:10.55 | 0 | 0 |
| 908 | Lil O.D. | 2:10.60 | 0 | 0 |
| 909 | Plushsealy | 2:10.71 | 0 | 0 |
| 910 | mentor07825 | 2:10.77 | 0 | 0 |
| 911 | Steuben | 2:10.84 | 0 | 0 |
| 912 | SaltedFork | 2:10.99 | 0 | 0 |
| 913 | MrUnbecoming | 2:11.03 | 0 | 0 |
| 914 | 1MBStudios | 2:11.04 | 0 | 0 |
| 915 | Eternal Eclipse | 2:11.18 | 0 | 0 |
| 916 | Ventras | 2:11.34 | 0 | 0 |
| 917 | Lord_Of_Weasels | 2:11.35 | 0 | 0 |
| 918 | ShotgunSalad | 2:11.37 | 0 | 0 |
| 919 | Treme | 2:11.49 | 0 | 0 |
| 920 | ReadWriteError | 2:11.52 | 0 | 0 |
| 921 | Arael | 2:11.53 | 0 | 0 |
| 922 | Enso | 2:11.70 | 0 | 0 |
| 923 | Arthur | 2:11.75 | 0 | 0 |
| 924 | Buttlet | 2:11.84 | 0 | 0 |
| 925 | Dazzle10 | 2:11.89 | 0 | 0 |
| 926 | cheif22 | 2:12.31 | 0 | 0 |
| 927 | Not_Izaah | 2:12.37 | 0 | 0 |
| 928 | BumbleFunkMcGee | 2:12.51 | 0 | 0 |
| 929 | Prism Refract | 2:12.60 | 0 | 0 |
| 930 | Holo | 2:12.67 | 0 | 0 |
| 931 | 『QPUNeptune』 | 2:12.81 | 0 | 0 |
| 932 | boombask | 2:12.99 | 0 | 0 |
| 933 | Phazyo Knight | 2:13.06 | 0 | 0 |
| 934 | NekoNachi | 2:13.10 | 0 | 0 |
| 935 | Jubelio | 2:13.14 | 0 | 0 |
| 936 | Lysander | 2:13.16 | 0 | 0 |
| 937 | pipsparadise21 | 2:13.17 | 0 | 0 |
| 938 | Omega_Raptors | 2:13.48 | 0 | 0 |
| 939 | Quantum Kitsune | 2:13.56 | 0 | 0 |
| 940 | [NR] Miyu012 | 2:13.70 | 0 | 0 |
| 941 | Breno_SO | 2:13.80 | 0 | 0 |
| 942 | Ditzy_Set | 2:13.93 | 0 | 0 |
| 943 | Skuzzles | 2:13.95 | 0 | 0 |
| 944 | Žydras | 2:14.15 | 0 | 0 |
| 945 | Meconis | 2:14.16 | 0 | 0 |
| 946 | Uldergoff | 2:14.24 | 0 | 0 |
| 947 | Gabagool | 2:14.27 | 0 | 0 |
| 948 | Pink Naruto | 2:14.65 | 0 | 0 |
| 949 | NyaNekoEngine | 2:14.71 | 0 | 0 |
| 950 | energize | 2:14.72 | 0 | 0 |
| 951 | AnalBreacher | 2:14.97 | 0 | 0 |
| 952 | Bubwubster | 2:15.00 | 0 | 0 |
| 953 | JC | 2:15.10 | 0 | 0 |
| 954 | Lord Cucumber | 2:15.11 | 0 | 0 |
| 955 | Dinkleberg | 2:15.17 | 0 | 0 |
| 956 | Lupeling | 2:15.25 | 0 | 0 |
| 957 | DJ McBirde | 2:15.45 | 0 | 0 |
| 958 | allquiet | 2:15.61 | 0 | 0 |
| 959 | Athice | 2:15.64 | 0 | 0 |
| 960 | MR.CH33ZZY 63 | 2:15.82 | 0 | 0 |
| 961 | Soraho | 2:15.85 | 0 | 0 |
| 962 | swad127 | 2:15.86 | 0 | 0 |
| 963 | Draith_Vicious | 2:15.87 | 0 | 0 |
| 964 | Sp1keWo1f | 2:15.89 | 0 | 0 |
| 965 | Parollax | 2:15.91 | 0 | 0 |
| 966 | . | 2:16.04 | 0 | 0 |
| 967 | _olivia | 2:16.08 | 0 | 0 |
| 968 | Mouseochism | 2:16.11 | 0 | 0 |
| 969 | AyyLmeow | 2:16.25 | 0 | 0 |
| 970 | GloryThePen | 2:16.32 | 0 | 0 |
| 971 | Julius_Geezer | 2:16.41 | 0 | 0 |
| 972 | DapperDandyDan | 2:16.44 | 0 | 0 |
| 973 | WitchOnFire | 2:16.45 | 0 | 0 |
| 974 | MrMister | 2:16.52 | 0 | 0 |
| 975 | Sappytron | 2:16.53 | 0 | 0 |
| 976 | Firefang | 2:16.56 | 0 | 0 |
| 977 | Wolf | 2:16.69 | 0 | 0 |
| 978 | CoffeeGremlin | 2:16.95 | 0 | 0 |
| 979 | Prismism | 2:17.09 | 0 | 0 |
| 980 | Canadian | 2:17.16 | 0 | 0 |
| 981 | PowerMeep | 2:17.37 | 0 | 0 |
| 982 | Tokyo. | 2:17.42 | 0 | 0 |
| 983 | Yoruichi | 2:17.45 | 0 | 0 |
| 984 | BesRezen | 2:17.46 | 0 | 0 |
| 985 | GORAi | 2:17.55 | 0 | 0 |
| 986 | d0nny | 2:17.70 | 0 | 0 |
| 987 | VBlehp | 2:17.86 | 0 | 0 |
| 988 | Zimmerman | 2:17.95 | 0 | 0 |
| 989 | Krunch | 2:18.03 | 0 | 0 |
| 990 | troysmith14 | 2:18.08 | 0 | 0 |
| 991 | StolenSouls | 2:18.14 | 0 | 0 |
| 992 | Reus | 2:18.18 | 0 | 0 |
| 993 | YellowYogurt | 2:18.30 | 0 | 0 |
| 993 | Xenu | 2:18.30 | 0 | 0 |
| 995 | mirandaaaxo | 2:18.31 | 0 | 0 |
| 996 | gilnners | 2:18.33 | 0 | 0 |
| 997 | Gooch Wizard | 2:18.40 | 0 | 0 |
| 998 | futpib | 2:18.68 | 0 | 0 |
| 999 | Jukey J | 2:18.70 | 0 | 0 |
| 1,000 | Ungarr | 2:18.72 | 0 | 0 |
| 1,001 | masterhenky | 2:18.87 | 0 | 0 |
| 1,002 | Titanite Chunk | 2:18.89 | 0 | 0 |
| 1,003 | Hazy on the Details | 2:18.91 | 0 | 0 |
| 1,004 | MOCOCHINCHOL | 2:18.99 | 0 | 0 |
| 1,005 | WoodenStatue | 2:19.02 | 0 | 0 |
| 1,006 | PuReCha0s | 2:19.03 | 0 | 0 |
| 1,007 | Charlotte | 2:19.05 | 0 | 0 |
| 1,007 | LittleKittyArtemis | 2:19.05 | 0 | 0 |
| 1,009 | Pinapl | 2:19.06 | 0 | 0 |
| 1,010 | Missippi_Hippie | 2:19.31 | 0 | 0 |
| 1,011 | Coldfish | 2:19.36 | 0 | 0 |
| 1,012 | Glitchy | 2:19.38 | 0 | 0 |
| 1,013 | Boomslang | 2:19.62 | 0 | 0 |
| 1,014 | Ranger Danger | 2:19.63 | 0 | 0 |
| 1,015 | wolf d okai | 2:19.72 | 0 | 0 |
| 1,016 | Birdiot | 2:19.86 | 0 | 0 |
| 1,017 | 16aroth6 | 2:20.06 | 0 | 0 |
| 1,018 | chickenparma | 2:20.08 | 0 | 0 |
| 1,019 | Xandrak | 2:20.24 | 0 | 0 |
| 1,020 | lira.rospionne | 2:20.42 | 0 | 0 |
| 1,021 | Arca | 2:20.49 | 0 | 0 |
| 1,022 | Eindolon | 2:20.52 | 0 | 0 |
| 1,023 | The Mighty Spoon™ | 2:20.77 | 0 | 0 |
| 1,024 | Casmo | 2:20.91 | 0 | 0 |
| 1,025 | akamikeb | 2:20.98 | 0 | 0 |
| 1,026 | Metal Gear Salad | 2:21.05 | 0 | 0 |
| 1,027 | Yuki Arika Muze | 2:21.17 | 0 | 0 |
| 1,028 | KingSpammerNerd | 2:21.21 | 0 | 0 |
| 1,029 | Dinkle Dankus | 2:21.22 | 0 | 0 |
| 1,030 | rezzonating | 2:21.37 | 0 | 0 |
| 1,031 | ketikidistv | 2:21.39 | 0 | 0 |
| 1,032 | Corplace | 2:21.64 | 0 | 0 |
| 1,033 | Tomformer | 2:21.78 | 0 | 0 |
| 1,034 | MPR03a | 2:21.96 | 0 | 0 |
| 1,034 | Eskora | 2:21.96 | 0 | 0 |
| 1,034 | Ostman | 2:21.96 | 0 | 0 |
| 1,037 | 54mm7 | 2:22.01 | 0 | 0 |
| 1,038 | Bezzernator | 2:22.28 | 0 | 0 |
| 1,039 | SirKiyoshi | 2:22.77 | 0 | 0 |
| 1,040 | . | 2:22.80 | 0 | 0 |
| 1,041 | Tibbs | 2:22.86 | 0 | 0 |
| 1,042 | Onur | 2:22.97 | 0 | 0 |
| 1,043 | Zalky | 2:22.99 | 0 | 0 |
| 1,044 | Jeebus | 2:23.01 | 0 | 0 |
| 1,045 | 時雨 | 2:23.34 | 0 | 0 |
| 1,046 | Wiewiór | 2:23.36 | 0 | 0 |
| 1,047 | SHAaD_Sicod | 2:23.67 | 0 | 0 |
| 1,048 | Sayo-nara | 2:23.72 | 0 | 0 |
| 1,049 | Drafter | 2:23.73 | 0 | 0 |
| 1,050 | JaimmyShine | 2:23.86 | 0 | 0 |
| 1,051 | FunRizZ | 2:24.18 | 0 | 0 |
| 1,052 | Blacky Stranger | 2:24.31 | 0 | 0 |
| 1,053 | Sputnik | 2:24.66 | 0 | 0 |
| 1,054 | Kuma Matata | 2:24.68 | 0 | 0 |
| 1,055 | croc | 2:24.94 | 0 | 0 |
| 1,056 | Tim Starstriker | 2:24.95 | 0 | 0 |
| 1,057 | P0LL0 | 2:25.11 | 0 | 0 |
| 1,057 | Lumiflag | 2:25.11 | 0 | 0 |
| 1,059 | Ashreal | 2:25.12 | 0 | 0 |
| 1,060 | Bunker475 | 2:25.22 | 0 | 0 |
| 1,061 | Lighti | 2:25.85 | 0 | 0 |
| 1,062 | Dekkosun™ | 2:25.89 | 0 | 0 |
| 1,063 | fridgelessedard | 2:25.97 | 0 | 0 |
| 1,064 | Lynx | 2:26.19 | 0 | 0 |
| 1,065 | rocmanx654 | 2:26.27 | 0 | 0 |
| 1,066 | StikBoy | 2:26.38 | 0 | 0 |
| 1,067 | CrashZxS | 2:26.80 | 0 | 0 |
| 1,068 | RabbiT | 2:27.72 | 0 | 0 |
| 1,069 | Chicken_Tendy | 2:27.92 | 0 | 0 |
| 1,070 | Jass5991 | 2:27.97 | 0 | 0 |
| 1,071 | PathToV1ctory | 2:28.13 | 0 | 0 |
| 1,072 | Sneak Thief | 2:28.20 | 0 | 0 |
| 1,073 | Alyx | 2:28.21 | 0 | 0 |
| 1,074 | Patches | 2:28.32 | 0 | 0 |
| 1,075 | meziter260 | 2:28.38 | 0 | 0 |
| 1,076 | RunawayJesus | 2:28.51 | 0 | 0 |
| 1,077 | R | 2:28.57 | 0 | 0 |
| 1,078 | TemporalFox | 2:28.74 | 0 | 0 |
| 1,079 | 76561198315689252 | 2:28.80 | 0 | 0 |
| 1,080 | WUG | 2:28.89 | 0 | 0 |
| 1,081 | Vueko | 2:28.94 | 0 | 0 |
| 1,082 | PowaRanja | 2:28.99 | 0 | 0 |
| 1,083 | Freibier For Future | 2:29.15 | 0 | 0 |
| 1,084 | Count Spatula | 2:29.26 | 0 | 0 |
| 1,085 | Smaxy | 2:29.73 | 0 | 0 |
| 1,086 | Juma | 2:29.77 | 0 | 0 |
| 1,087 | Xela | 2:29.86 | 0 | 0 |
| 1,088 | kojackid | 2:30.13 | 0 | 0 |
| 1,089 | T0r|O カイトー | 2:30.34 | 0 | 0 |
| 1,090 | RPX | 2:30.43 | 0 | 0 |
| 1,091 | Kami | 2:30.60 | 0 | 0 |
| 1,092 | Dragnar The Meme God | 2:30.62 | 0 | 0 |
| 1,093 | astralFitz | 2:30.75 | 0 | 0 |
| 1,093 | squirreljiz | 2:30.75 | 0 | 0 |
| 1,095 | offroadguy56 | 2:30.95 | 0 | 0 |
| 1,096 | SecretSchizoid | 2:31.02 | 0 | 0 |
| 1,097 | SenseofCLouD | 2:31.17 | 0 | 0 |
| 1,098 | garg | 2:31.18 | 0 | 0 |
| 1,099 | Calcarious | 2:31.70 | 0 | 0 |
| 1,100 | Kouldrek | 2:31.84 | 0 | 0 |
| 1,101 | Förmaaki | 2:32.05 | 0 | 0 |
| 1,102 | Nano Void | 2:32.10 | 0 | 0 |
| 1,103 | lift ur pooltoy tail for me | 2:32.20 | 0 | 0 |
| 1,104 | GD Taylor | 2:32.27 | 0 | 0 |
| 1,105 | krakentoa | 2:32.30 | 0 | 0 |
| 1,106 | Tyche | 2:32.34 | 0 | 0 |
| 1,107 | Dracheron | 2:32.54 | 0 | 0 |
| 1,108 | Gimba Cheese | 2:32.82 | 0 | 0 |
| 1,109 | Davoz | 2:33.01 | 0 | 0 |
| 1,110 | UltimateTone | 2:33.10 | 0 | 0 |
| 1,111 | JosheM | 2:33.11 | 0 | 0 |
| 1,112 | arcane | 2:33.14 | 0 | 0 |
| 1,113 | Hydrochoerus | 2:33.16 | 0 | 0 |
| 1,114 | TTV/TheXvisionary | 2:33.17 | 0 | 0 |
| 1,115 | Amni | 2:33.35 | 0 | 0 |
| 1,116 | Norminal | 2:33.57 | 0 | 0 |
| 1,117 | BitSabre | 2:33.99 | 0 | 0 |
| 1,118 | IkkouSoryu | 2:34.15 | 0 | 0 |
| 1,119 | 14k | 2:34.17 | 0 | 0 |
| 1,120 | FrostCorp | 2:34.52 | 0 | 0 |
| 1,121 | Exilis | 2:35.07 | 0 | 0 |
| 1,122 | TheFirstHeathen | 2:35.20 | 0 | 0 |
| 1,123 | Kunya The Scoot | 2:35.32 | 0 | 0 |
| 1,124 | Vinnie Scumbolli | 2:35.37 | 0 | 0 |
| 1,125 | McNaughty | 2:35.49 | 0 | 0 |
| 1,126 | BurritoBazooka | 2:35.56 | 0 | 0 |
| 1,127 | Peter | 2:35.57 | 0 | 0 |
| 1,128 | Ибупробебра | 2:35.62 | 0 | 0 |
| 1,129 | Captain Frosty | 2:35.64 | 0 | 0 |
| 1,130 | Maugan Ra | 2:35.77 | 0 | 0 |
| 1,131 | Uganda Knuckles | 2:35.81 | 0 | 0 |
| 1,132 | ElOsoPervertido | 2:35.95 | 0 | 0 |
| 1,133 | Minefreak6633 | 2:36.27 | 0 | 0 |
| 1,134 | MrDrunk | 2:36.30 | 0 | 0 |
| 1,135 | LadyElixa | 2:36.35 | 0 | 0 |
| 1,136 | Padre of Filth | 2:36.37 | 0 | 0 |
| 1,137 | guilty crimebird (-10% lies) | 2:36.92 | 0 | 0 |
| 1,137 | Spark79 | 2:36.92 | 0 | 0 |
| 1,139 | Todd Baxter | 2:36.99 | 0 | 0 |
| 1,140 | SlenderBonnie | 2:37.05 | 0 | 0 |
| 1,141 | Eclipse | 2:37.20 | 0 | 0 |
| 1,142 | Pexillien | 2:37.41 | 0 | 0 |
| 1,143 | John Knight | 2:37.55 | 0 | 0 |
| 1,144 | CrimsonFez | 2:37.57 | 0 | 0 |
| 1,145 | Trackmani? | 2:37.83 | 0 | 0 |
| 1,145 | vts | 2:37.83 | 0 | 0 |
| 1,147 | Keys | 2:38.05 | 0 | 0 |
| 1,148 | Renault Modus phase 2 | 2:38.15 | 0 | 0 |
| 1,149 | MENICE Ω | 2:38.17 | 0 | 0 |
| 1,150 | Tornado6500 | 2:38.36 | 0 | 0 |
| 1,151 | Megahierba | 2:38.40 | 0 | 0 |
| 1,152 | Nephuxs | 2:38.46 | 0 | 0 |
| 1,153 | You Are Valid | 2:38.69 | 0 | 0 |
| 1,154 | AnonyBunny | 2:39.02 | 0 | 0 |
| 1,155 | Isabella | 2:39.28 | 0 | 0 |
| 1,156 | Bandit | 2:39.39 | 0 | 0 |
| 1,157 | Summer | 2:39.49 | 0 | 0 |
| 1,158 | HatCat, Oil Baron | 2:39.58 | 0 | 0 |
| 1,159 | Darkness | 2:40.44 | 0 | 0 |
| 1,160 | Exec | 2:40.55 | 0 | 0 |
| 1,161 | julio_alexx | 2:40.70 | 0 | 0 |
| 1,162 | R1PP | 2:41.27 | 0 | 0 |
| 1,163 | PickleJoo | 2:41.41 | 0 | 0 |
| 1,164 | SmittenPuppet | 2:41.47 | 0 | 0 |
| 1,165 | Gecky | 2:41.52 | 0 | 0 |
| 1,166 | Vuurniac | 2:41.68 | 0 | 0 |
| 1,167 | morningbird | 2:41.69 | 0 | 0 |
| 1,168 | Lava | 2:41.77 | 0 | 0 |
| 1,169 | NappyRat | 2:42.23 | 0 | 0 |
| 1,170 | Zebra | 2:42.37 | 0 | 0 |
| 1,170 | Black mold billy | 2:42.37 | 0 | 0 |
| 1,172 | keygenmayor | 2:42.39 | 0 | 0 |
| 1,173 | XDrakkir | 2:42.66 | 0 | 0 |
| 1,173 | Bilbobangboom | 2:42.66 | 0 | 0 |
| 1,175 | Shanikan | 2:42.78 | 0 | 0 |
| 1,176 | wanderingradio | 2:42.90 | 0 | 0 |
| 1,177 | mos | 2:43.08 | 0 | 0 |
| 1,178 | Alastor_Scarecrow | 2:43.23 | 0 | 0 |
| 1,179 | Glypse | 2:43.35 | 0 | 0 |
| 1,180 | Crown | 2:43.48 | 0 | 0 |
| 1,181 | Melon | 2:43.56 | 0 | 0 |
| 1,182 | Aerwhisp | 2:43.76 | 0 | 0 |
| 1,183 | 1kscreams | 2:44.06 | 0 | 0 |
| 1,184 | noodle | 2:44.41 | 0 | 0 |
| 1,185 | raviolifun | 2:45.02 | 0 | 0 |
| 1,186 | Top Squatnik | 2:45.41 | 0 | 0 |
| 1,187 | J4M3Z34 | 2:45.60 | 0 | 0 |
| 1,188 | IcemanInferno | 2:45.91 | 0 | 0 |
| 1,189 | SunsetBAE | 2:46.62 | 0 | 0 |
| 1,190 | Zinja | 2:47.05 | 0 | 0 |
| 1,191 | Taro | 2:47.40 | 0 | 0 |
| 1,192 | h05h1 | 2:47.55 | 0 | 0 |
| 1,193 | MrJacksJamboree | 2:47.57 | 0 | 0 |
| 1,194 | Toasty534 | 2:47.72 | 0 | 0 |
| 1,195 | Врываюсь на сапоге | 2:48.04 | 0 | 0 |
| 1,195 | jliebig | 2:48.04 | 0 | 0 |
| 1,197 | Terr4 | 2:48.07 | 0 | 0 |
| 1,198 | Faize | 2:48.14 | 0 | 0 |
| 1,199 | sohnio | 2:48.22 | 0 | 0 |
| 1,200 | femptocrisis | 2:48.31 | 0 | 0 |
| 1,200 | Raiyson Terrorwing | 2:48.31 | 0 | 0 |
| 1,202 | Hightree | 2:48.37 | 0 | 0 |
| 1,203 | Moon Fairy Kyra | 2:48.57 | 0 | 0 |
| 1,204 | Mega Mike 70 | 2:48.63 | 0 | 0 |
| 1,205 | EnderKill98 | 2:49.00 | 0 | 0 |
| 1,206 | How Does One "Fujo Out?" | 2:49.50 | 0 | 0 |
| 1,207 | d other dude | 2:49.51 | 0 | 0 |
| 1,208 | Despo_357 | 2:49.64 | 0 | 0 |
| 1,209 | GreatTrixiePony | 2:49.81 | 0 | 0 |
| 1,210 | WizardOWozz | 2:50.14 | 0 | 0 |
| 1,211 | Rybot | 2:50.99 | 0 | 0 |
| 1,212 | crimes.against.art | 2:51.28 | 0 | 0 |
| 1,213 | GlowDoggo | 2:51.44 | 0 | 0 |
| 1,214 | lexlimo | 2:51.72 | 0 | 0 |
| 1,215 | 『Pepsi-Man』 | 2:52.03 | 0 | 0 |
| 1,216 | NATINAUM | 2:52.04 | 0 | 0 |
| 1,217 | Exiled MOU | 2:52.92 | 0 | 0 |
| 1,218 | Starhorder | 2:53.18 | 0 | 0 |
| 1,219 | Imjustcam | 2:53.39 | 0 | 0 |
| 1,220 | Teapot Possum | 2:53.55 | 0 | 0 |
| 1,221 | ...@ACCCRACK... | 2:53.97 | 0 | 0 |
| 1,222 | ZSoup | 2:54.41 | 0 | 0 |
| 1,223 | romeo | 2:54.97 | 0 | 0 |
| 1,224 | Arach | 2:55.15 | 0 | 0 |
| 1,225 | Mathias | 2:55.21 | 0 | 0 |
| 1,226 | Meat Cyclist | 2:55.60 | 0 | 0 |
| 1,227 | Shjohn | 2:55.85 | 0 | 0 |
| 1,228 | ReverseUno | 2:55.86 | 0 | 0 |
| 1,229 | Kordain | 2:55.88 | 0 | 0 |
| 1,230 | Onigiriii | 2:56.15 | 0 | 0 |
| 1,231 | Caducifolio | 2:56.16 | 0 | 0 |
| 1,232 | neo_anderson | 2:56.49 | 0 | 0 |
| 1,233 | enerszon | 2:57.14 | 0 | 0 |
| 1,234 | Katatauw | 2:57.52 | 0 | 0 |
| 1,235 | Nellexten | 2:57.87 | 0 | 0 |
| 1,236 | HesyoS | 2:57.94 | 0 | 0 |
| 1,237 | Makusu | 2:58.44 | 0 | 0 |
| 1,238 | Wishlist>Disco Tomb | 2:58.74 | 0 | 0 |
| 1,239 | AERO | 2:59.16 | 0 | 0 |
| 1,240 | Static the Pet | 3:00.00 | 0 | 0 |
| 1,241 | tao | 3:00.19 | 0 | 0 |
| 1,242 | HardRoar|CEOofSex | 3:00.21 | 0 | 0 |
| 1,243 | Ay bruh | 3:00.42 | 0 | 0 |
| 1,244 | ProtoGondwana | 3:01.84 | 0 | 0 |
| 1,245 | GOOSE SATAN! | 3:02.27 | 0 | 0 |
| 1,246 | rilelyscastle | 3:02.43 | 0 | 0 |
| 1,247 | HouseCat | 3:02.84 | 0 | 0 |
| 1,248 | BappoYo | 3:02.92 | 0 | 0 |
| 1,249 | Para1lax | 3:03.10 | 0 | 0 |
| 1,250 | Jigglypuff | 3:03.13 | 0 | 0 |
| 1,251 | JokersBullet12 | 3:03.48 | 0 | 0 |
| 1,252 | Hayden | 3:03.76 | 0 | 0 |
| 1,253 | Fart UnTangler | 3:04.89 | 0 | 0 |
| 1,254 | Aimbrot, die Seegurke | 3:05.03 | 0 | 0 |
| 1,255 | GreyOathDragon | 3:05.04 | 0 | 0 |
| 1,256 | ZephyrArashiiii | 3:05.48 | 0 | 0 |
| 1,257 | Uschaschmichr | 3:06.35 | 0 | 0 |
| 1,258 | Entropy can't catch me. | 3:06.50 | 0 | 0 |
| 1,259 | Loys Nuva | 3:06.78 | 0 | 0 |
| 1,260 | Cottonmouth | 3:06.80 | 0 | 0 |
| 1,261 | Ceapa_Verde | 3:06.82 | 0 | 0 |
| 1,262 | Mr_Rose | 3:07.75 | 0 | 0 |
| 1,263 | John Weak | 3:08.19 | 0 | 0 |
| 1,264 | Altair | 3:08.68 | 0 | 0 |
| 1,265 | Admiral Pond Scum | 3:09.20 | 0 | 0 |
| 1,266 | Dubblr | 3:09.40 | 0 | 0 |
| 1,267 | El oh el | 3:09.63 | 0 | 0 |
| 1,268 | DeskTopHero | 3:10.36 | 0 | 0 |
| 1,269 | .... | 3:10.46 | 0 | 0 |
| 1,270 | MightyNifty | 3:10.52 | 0 | 0 |
| 1,271 | Beastman | 3:10.69 | 0 | 0 |
| 1,272 | KettleTicket | 3:11.75 | 0 | 0 |
| 1,273 | byanymeansnecessary | 3:12.31 | 0 | 0 |
| 1,274 | That Thing | 3:12.84 | 0 | 0 |
| 1,275 | Larkman | 3:13.05 | 0 | 0 |
| 1,275 | Acedia | 3:13.05 | 0 | 0 |
| 1,277 | boog2theman | 3:13.15 | 0 | 0 |
| 1,278 | potionblue | 3:13.16 | 0 | 0 |
| 1,279 | Aventurain | 3:13.72 | 0 | 0 |
| 1,280 | STOGI | 3:14.15 | 0 | 0 |
| 1,281 | Сосёна | 3:15.02 | 0 | 0 |
| 1,282 | ΣήgŁiﯖħ | 3:15.03 | 0 | 0 |
| 1,283 | reRun | 3:15.43 | 0 | 0 |
| 1,284 | Pregnant | 3:15.61 | 0 | 0 |
| 1,285 | Delta | 3:15.85 | 0 | 0 |
| 1,286 | BlownToBits | 3:15.95 | 0 | 0 |
| 1,287 | CookieCake | 3:16.61 | 0 | 0 |
| 1,288 | Versiaz | 3:18.38 | 0 | 0 |
| 1,289 | Phaserlight | 3:18.59 | 0 | 0 |
| 1,290 | PowerLay | 3:19.13 | 0 | 0 |
| 1,291 | Quantis | 3:19.35 | 0 | 0 |
| 1,292 | Idranoid | 3:19.87 | 0 | 0 |
| 1,293 | tsitski | 3:22.08 | 0 | 0 |
| 1,294 | Windrunner | 3:22.85 | 0 | 0 |
| 1,295 | rich.records | 3:23.24 | 0 | 0 |
| 1,296 | Silvertail | 3:23.46 | 0 | 0 |
| 1,297 | Hadesnevada4 | 3:23.61 | 0 | 0 |
| 1,298 | Ape Tea | 3:23.95 | 0 | 0 |
| 1,299 | Kimmykix | 3:24.24 | 0 | 0 |
| 1,300 | PinkSlippers_ | 3:25.00 | 0 | 0 |
| 1,301 | NuggetMan | 3:26.88 | 0 | 0 |
| 1,302 | Sgt Severe | 3:27.22 | 0 | 0 |
| 1,303 | Hawaiano | 3:28.51 | 0 | 0 |
| 1,304 | Psygro | 3:29.06 | 0 | 0 |
| 1,305 | R4gN0r0K | 3:29.23 | 0 | 0 |
| 1,306 | herman | 3:29.75 | 0 | 0 |
| 1,307 | The 14 ème | 3:30.12 | 0 | 0 |
| 1,308 | Mx | 3:30.72 | 0 | 0 |
| 1,309 | fedex | 3:30.97 | 0 | 0 |
| 1,310 | PappaJohn'sOfficial | 3:31.09 | 0 | 0 |
| 1,311 | RABOAN | 3:31.52 | 0 | 0 |
| 1,312 | MortenZenn | 3:32.25 | 0 | 0 |
| 1,313 | Dantalion | 3:32.45 | 0 | 0 |
| 1,314 | Sly_GME | 3:32.49 | 0 | 0 |
| 1,315 | Bob_Ross_Sauce | 3:32.90 | 0 | 0 |
| 1,316 | Eddy | 3:32.95 | 0 | 0 |
| 1,317 | Big Disk | 3:33.39 | 0 | 0 |
| 1,318 | Eyes | 3:33.65 | 0 | 0 |
| 1,319 | Damok | 3:35.34 | 0 | 0 |
| 1,320 | FREE PALESTINE | 3:36.38 | 0 | 0 |
| 1,321 | Ember Dystopia | 3:37.35 | 0 | 0 |
| 1,322 | Art | 3:37.51 | 0 | 0 |
| 1,323 | | 3:38.20 | 0 | 0 |
| 1,324 | félix | 3:38.59 | 0 | 0 |
| 1,325 | BiGdIcMiKe | 3:39.10 | 0 | 0 |
| 1,326 | Fuggerfly | 3:39.43 | 0 | 0 |
| 1,327 | Skrall' | 3:41.25 | 0 | 0 |
| 1,328 | Darkreaver1980 | 3:44.32 | 0 | 0 |
| 1,329 | Blxckpanthaa | 3:44.50 | 0 | 0 |
| 1,330 | Old Bum'Muffin | 3:44.87 | 0 | 0 |
| 1,331 | Ice Dragonhawk | 3:45.53 | 0 | 0 |
| 1,332 | Rome | 3:45.70 | 0 | 0 |
| 1,333 | [STMHPY] defragmentized | 3:46.11 | 0 | 0 |
| 1,334 | FENT FIEND | 3:47.16 | 0 | 0 |
| 1,335 | Pancho | 3:48.02 | 0 | 0 |
| 1,336 | NostalgicRage | 3:48.65 | 0 | 0 |
| 1,337 | leather n studs bracelet | 3:49.14 | 0 | 0 |
| 1,338 | Pissant (DX Cut) | 3:49.55 | 0 | 0 |
| 1,339 | qwertyuio | 3:52.50 | 0 | 0 |
| 1,340 | Synchroneity | 3:52.94 | 0 | 0 |
| 1,341 | VariousBlazertazer | 3:54.72 | 0 | 0 |
| 1,342 | Saujii2 | 3:56.12 | 0 | 0 |
| 1,343 | Breezy™ | 3:56.20 | 0 | 0 |
| 1,344 | michamech | 3:56.94 | 0 | 0 |
| 1,345 | 42 | 4:01.26 | 0 | 0 |
| 1,346 | Rotheswolf Lycurgus | 4:04.90 | 0 | 0 |
| 1,347 | davislb2 | 4:05.61 | 0 | 0 |
| 1,348 | lucas88 | 4:06.28 | 0 | 0 |
| 1,349 | EletroZé | 4:08.07 | 0 | 0 |
| 1,350 | Larlac | 4:08.12 | 0 | 0 |
| 1,351 | mapachesito123 | 4:09.69 | 0 | 0 |
| 1,352 | wEEb Trash | 4:09.85 | 0 | 0 |
| 1,353 | Uncle Rusty | 4:17.51 | 0 | 0 |
| 1,354 | TheCandyMan36™ | 4:17.71 | 0 | 0 |
| 1,355 | Hooligan | 4:17.73 | 0 | 0 |
| 1,356 | Dora The Destroya | 4:23.35 | 0 | 0 |
| 1,357 | McFolt | 4:25.75 | 0 | 0 |
| 1,358 | Khailz | 4:28.67 | 0 | 0 |
| 1,359 | Petrus | 4:33.08 | 0 | 0 |
| 1,360 | Alexander Sviridov | 4:35.90 | 0 | 0 |
| 1,361 | Creamy Rick | 4:43.99 | 0 | 0 |
| 1,362 | LordDavCan | 4:44.63 | 0 | 0 |
| 1,363 | mrsbh3 | 4:48.04 | 0 | 0 |
| 1,364 | Darkine | 4:51.78 | 0 | 0 |
| 1,365 | Human. | 4:55.13 | 0 | 0 |
| 1,366 | Greece-Milk | 4:56.72 | 0 | 0 |
| 1,367 | Hômɓer | 5:01.97 | 0 | 0 |
| 1,368 | .Feiz | 5:04.86 | 0 | 0 |
| 1,369 | Sriracha_Man | 5:16.75 | 0 | 0 |
| 1,370 | Twiloore | 5:16.92 | 0 | 0 |
| 1,371 | Sir.Cabbage | 5:27.18 | 0 | 0 |
| 1,372 | aro3o6 | 5:35.49 | 0 | 0 |
| 1,373 | BEAR | 5:38.71 | 0 | 0 |
| 1,374 | gslayer14 | 5:54.04 | 0 | 0 |
| 1,375 | ArrowSet | 5:55.87 | 0 | 0 |
| 1,376 | Mellow | 6:09.13 | 0 | 0 |
| 1,377 | DL | 6:16.43 | 0 | 0 |
| 1,378 | ThanksForNothing | 6:21.60 | 0 | 0 |
| 1,379 | [F]ulgu | 6:23.65 | 0 | 0 |
| 1,380 | Aimstinct | 6:48.87 | 0 | 0 |
HoldGrip